Home > Products > Valid Products > TAF

000
FTUS44 KCRP 240500
TAFCRP
TAF
KCRP 240522Z 2406/2506 06006KT P6SM FEW120
     FM242100 11009KT P6SM FEW050=



000
FTUS44 KCRP 240500
TAFVCT
TAF
KVCT 240522Z 2406/2506 03005KT P6SM FEW100
      TEMPO 2410/2413 00000KT 5SM BR
     FM242300 11007KT P6SM FEW060=



000
FTUS44 KCRP 240500
TAFLRD
TAF
KLRD 240522Z 2406/2506 12005KT P6SM FEW080=



000
FTUS44 KCRP 240500
TAFALI
TAF
KALI 240522Z 2406/2506 05005KT P6SM FEW100
      TEMPO 2410/2413 00000KT 5SM BR
     FM242300 11007KT P6SM FEW060=



000
FTUS44 KCRP 232300
TAFCRP
TAF
KCRP 232330Z 2400/2424 06006KT P6SM SCT120
     FM242100 11009KT P6SM FEW050=



000
FTUS44 KCRP 232300
TAFALI
TAF
KALI 232330Z 2400/2424 05005KT P6SM SCT100
      TEMPO 2409/2413 00000KT 3SM BR=



000
FTUS44 KCRP 232300
TAFLRD
TAF
KLRD 232330Z 2400/2424 VRB04KT P6SM BKN080
     FM240400 14005KT P6SM SCT080=



000
FTUS44 KCRP 232300
TAFVCT
TAF
KVCT 232330Z 2400/2424 03005KT P6SM FEW090
      TEMPO 2409/2413 00000KT 3SM BR
     FM242200 08007KT P6SM FEW060=



000
FTUS44 KCRP 231700
TAFVCT
TAF
KVCT 231723Z 2318/2418 05005KT P6SM SCT010=



000
FTUS44 KCRP 231700
TAFALI
TAF
KALI 231723Z 2318/2418 08007KT P6SM SCT150=



000
FTUS44 KCRP 231700
TAFLRD
TAF
KLRD 231723Z 2318/2418 06006KT P6SM FEW050 SCT100=



000
FTUS44 KCRP 231700
TAFCRP
TAF
KCRP 231723Z 2318/2418 05008KT P6SM SCT035 BKN100=



000
FTUS44 KCRP 231500 AAA
TAFCRP
TAF AMD
KCRP 231501Z 2315/2412 04012KT P6SM FEW030 BKN150 BKN250
     FM231800 07014KT P6SM SCT035 BKN100
     FM240400 VRB03KT P6SM SCT150=



000
FTUS44 KCRP 231400 AAA
TAFALI
TAF AMD
KALI 231459Z 2315/2412 03008KT P6SM BKN100
     FM231800 07012KT P6SM SCT040 BKN150
     FM240300 VRB03KT P6SM SCT150=



000
FTUS44 KCRP 231100
TAFCRP
TAF
KCRP 231128Z 2312/2412 36007KT P6SM FEW020 BKN150
      TEMPO 2313/2316 5SM BR SCT020 OVC150
     FM231600 03009KT P6SM BKN025 OVC120
     FM231800 07014KT P6SM SCT035 BKN100
     FM240400 VRB03KT P6SM SCT150=



000
FTUS44 KCRP 231100
TAFALI
TAF
KALI 231128Z 2312/2412 35005KT P6SM BKN100
      TEMPO 2312/2315 5SM BR SCT030 OVC100
     FM231500 03007KT P6SM BKN030 OVC100
     FM231800 07012KT P6SM SCT040 BKN150
     FM240300 VRB03KT P6SM SCT150=



000
FTUS44 KCRP 231100
TAFVCT
TAF
KVCT 231128Z 2312/2412 35005KT P6SM BKN100
      TEMPO 2312/2314 5SM BR SCT025 OVC100
     FM231400 04007KT P6SM SCT030 BKN100
     FM231800 07012KT P6SM SCT040 BKN250
     FM240300 36003KT P6SM SCT150=



000
FTUS44 KCRP 231100
TAFLRD
TAF
KLRD 231128Z 2312/2412 04006KT P6SM BKN080
      TEMPO 2312/2314 5SM BR SCT035 OVC080
     FM231600 06008KT P6SM SCT040 OVC100
     FM232100 09012KT P6SM SCT150=



000
FTUS44 KCRP 230500
TAFVCT
TAF
KVCT 230539Z 2306/2406 04003KT P6SM SCT100
      TEMPO 2311/2314 5SM BR
     FM231400 04007KT P6SM SCT030 BKN100
     FM231800 07012KT P6SM SCT040 BKN250
     FM240300 VRB03KT P6SM SCT250=



000
FTUS44 KCRP 230500
TAFALI
TAF
KALI 230539Z 2306/2406 04003KT P6SM FEW025 SCT100
      TEMPO 2311/2314 5SM BR SCT025
     FM231500 04007KT P6SM SCT030 BKN100
     FM231800 07012KT P6SM SCT040 BKN250
     FM240300 VRB03KT P6SM SCT250=



000
FTUS44 KCRP 230500
TAFLRD
TAF
KLRD 230539Z 2306/2406 12006KT P6SM BKN080
      TEMPO 2311/2314 5SM BR
     FM231500 06008KT P6SM SCT035 BKN100
     FM232100 09012KT P6SM SCT060=



000
FTUS44 KCRP 230500
TAFCRP
TAF
KCRP 230539Z 2306/2406 04007KT P6SM SCT025 BKN200
     FM231800 07014KT P6SM SCT040 BKN250
     FM240400 VRB03KT P6SM SCT250=



000
FTUS44 KCRP 222300
TAFLRD
TAF
KLRD 222328Z 2300/2324 10011KT P6SM SCT035 BKN100
     FM230600 VRB04KT P6SM SCT030 BKN150
      TEMPO 2310/2314 5SM BR
     FM231600 08008KT P6SM SCT040 BKN100=



000
FTUS44 KCRP 222300
TAFVCT
TAF
KVCT 222328Z 2300/2324 09011KT P6SM SCT035
     FM230200 VRB06KT P6SM SCT025
      TEMPO 2310/2314 5SM BR
     FM231600 06008KT P6SM SCT040 BKN100=



000
FTUS44 KCRP 222300
TAFCRP
TAF
KCRP 222328Z 2300/2324 09011KT P6SM FEW040
     FM230300 VRB05KT P6SM SCT025 BKN120
     FM231700 07011KT P6SM SCT040 BKN120=



000
FTUS44 KCRP 222300
TAFALI
TAF
KALI 222328Z 2300/2324 09011KT P6SM FEW050
     FM230300 VRB03KT P6SM SCT018 BKN120
      TEMPO 2310/2314 5SM BR
     FM231400 06007KT P6SM SCT040 BKN120=



000
FTUS44 KCRP 221700
TAFVCT
TAF
KVCT 221724Z 2218/2318 09011KT P6SM SCT035
     FM230200 VRB06KT P6SM SCT025
      TEMPO 2310/2314 5SM BR=



000
FTUS44 KCRP 221700
TAFALI
TAF
KALI 221724Z 2218/2318 09011G19KT P6SM FEW027 SCT035
     FM230200 VRB06KT P6SM SCT018 BKN120
      TEMPO 2310/2314 5SM BR=



000
FTUS44 KCRP 221700
TAFLRD
TAF
KLRD 221724Z 2218/2318 11011KT P6SM SCT035 BKN100
     FM230600 VRB04KT P6SM SCT030 BKN150
      TEMPO 2310/2314 5SM BR=



000
FTUS44 KCRP 221700
TAFALI
TAF
KALI 221724Z 2218/2318 09011G19KT P6SM FEW027 SCT035
     FM230200 VRB06KT P6SM SCT018 BKN120
      TEMPO 2310/2314 5SM BR=



000
FTUS44 KCRP 221700
TAFLRD
TAF
KLRD 221724Z 2218/2318 11011KT P6SM SCT035 BKN100
     FM230600 VRB04KT P6SM SCT030 BKN150
      TEMPO 2310/2314 5SM BR=



000
FTUS44 KCRP 221700
TAFCRP
TAF
KCRP 221724Z 2218/2318 09014G20KT P6SM FEW025 SCT035
     FM230300 VRB06KT P6SM SCT025 BKN120=



000
FTUS44 KCRP 221700
TAFCRP
TAF
KCRP 221724Z 2218/2318 09014G20KT P6SM FEW025 SCT035
     FM230300 VRB06KT P6SM SCT025 BKN120=



000
FTUS44 KCRP 221700
TAFVCT
TAF
KVCT 221724Z 2218/2318 09011KT P6SM SCT035
     FM230200 VRB06KT P6SM SCT025
      TEMPO 2310/2314 5SM BR=



000
FTUS44 KCRP 221100
TAFLRD
TAF
KLRD 221121Z 2212/2312 06005KT P6SM OVC070
     FM221700 09012KT P6SM VCSH SCT035 BKN100
     FM222200 09012G18KT P6SM BKN050 OVC100
     FM230600 09004KT P6SM SCT150
      TEMPO 2310/2312 5SM BR=



000
FTUS44 KCRP 221100
TAFCRP
TAF
KCRP 221121Z 2212/2312 02005KT P6SM BKN250
     FM221500 07012KT P6SM SCT030 BKN150
     FM221900 09014G20KT P6SM SCT035
     FM230300 09008KT P6SM SCT025=



000
FTUS44 KCRP 221100
TAFVCT
TAF
KVCT 221121Z 2212/2312 02005KT P6SM SCT250
     FM221500 07007KT P6SM SCT030 BKN150
     FM222100 09010G15KT P6SM SCT040
     FM230200 09008KT P6SM SCT025
     FM230800 09004KT 5SM BR SCT015=



000
FTUS44 KCRP 221100
TAFALI
TAF
KALI 221121Z 2212/2312 03006KT P6SM SCT250
     FM221500 08010KT P6SM SCT030 BKN150
      TEMPO 2216/2218 BKN030
     FM222100 09012G18KT P6SM SCT040
     FM230200 09008KT P6SM SCT025
     FM231000 09004KT 5SM BR SCT015=



000
FTUS44 KCRP 220500
TAFVCT
TAF
KVCT 220527Z 2206/2306 VRB03KT P6SM SCT150
     FM220900 04003KT 5SM BR FEW020
      TEMPO 2210/2213 2SM BR
     FM221500 07007KT P6SM SCT030 BKN150
     FM222100 09010G15KT P6SM SCT040
     FM230200 09008KT P6SM SCT025=



000
FTUS44 KCRP 220500
TAFLRD
TAF
KLRD 220527Z 2206/2306 11005KT P6SM -SHRA BKN050 OVC150
      TEMPO 2210/2212 SCT010 BKN025 OVC050
     FM221600 09012KT P6SM SCT035
     FM222300 09012G18KT P6SM BKN050 OVC150=



000
FTUS44 KCRP 220500
TAFALI
TAF
KALI 220527Z 2206/2306 04005KT P6SM SCT020 BKN150
      TEMPO 2210/2213 3SM BR
     FM221500 08010KT P6SM SCT030 BKN150
      TEMPO 2215/2217 BKN030
     FM222100 09012G18KT P6SM SCT040
     FM230200 09008KT P6SM SCT025=



000
FTUS44 KCRP 220500
TAFCRP
TAF
KCRP 220527Z 2206/2306 08007KT P6SM FEW020 SCT150
     FM221500 08012KT P6SM SCT030 BKN150
     FM221900 09014G20KT P6SM SCT035
     FM230300 09008KT P6SM SCT025=



000
FTUS44 KCRP 220500
TAFVCT
TAF
KVCT 220527Z 2206/2306 VRB03KT P6SM SCT150
     FM220900 04003KT 5SM BR FEW020
      TEMPO 2210/2213 2SM BR
     FM221500 07007KT P6SM SCT030 BKN150
     FM222100 09010G15KT P6SM SCT040
     FM230200 09008KT P6SM SCT025=



000
FTUS44 KCRP 220500
TAFLRD
TAF
KLRD 220527Z 2206/2306 11005KT P6SM -SHRA BKN050 OVC150
      TEMPO 2210/2212 SCT010 BKN025 OVC050
     FM221600 09012KT P6SM SCT035
     FM222300 09012G18KT P6SM BKN050 OVC150=



000
FTUS44 KCRP 220500
TAFALI
TAF
KALI 220527Z 2206/2306 04005KT P6SM SCT020 BKN150
      TEMPO 2210/2213 3SM BR
     FM221500 08010KT P6SM SCT030 BKN150
      TEMPO 2215/2217 BKN030
     FM222100 09012G18KT P6SM SCT040
     FM230200 09008KT P6SM SCT025=



000
FTUS44 KCRP 220500
TAFCRP
TAF
KCRP 220527Z 2206/2306 08007KT P6SM FEW020 SCT150
     FM221500 08012KT P6SM SCT030 BKN150
     FM221900 09014G20KT P6SM SCT035
     FM230300 09008KT P6SM SCT025=



000
FTUS44 KCRP 220000 AAA
TAFLRD
TAF AMD
KLRD 220045Z 2201/2224 11010KT P6SM VCSH SCT040 BKN050
      TEMPO 2201/2203 6SM -SHRA BR BKN040
     FM220400 12007KT P6SM FEW015 BKN050
      TEMPO 2210/2212 BKN010
     FM221600 09011KT P6SM SCT050
     FM222300 11012G18KT P6SM SCT070=



000
FTUS44 KCRP 212300
TAFVCT
TAF
KVCT 212334Z 2200/2224 07010KT P6SM SKC
     FM220800 03004KT 4SM BR FEW250
     FM221300 07010KT P6SM FEW040 FEW250=



000
FTUS44 KCRP 212300
TAFALI
TAF
KALI 212334Z 2200/2224 08010KT P6SM FEW040 SCT180
     FM220900 04005KT P6SM SCT180
      TEMPO 2211/2213 2SM BR
     FM221500 08010KT P6SM SCT035
     FM221800 09012G18KT P6SM FEW040=



000
FTUS44 KCRP 212300
TAFCRP
TAF
KCRP 212334Z 2200/2224 08011KT P6SM FEW025 SCT180 SCT250
     FM220800 05006KT P6SM FEW018 SCT180
     FM221500 08013KT P6SM SCT035 SCT180
     FM221800 09013G19KT P6SM FEW040=



000
FTUS44 KCRP 212300
TAFLRD
TAF
KLRD 212334Z 2200/2224 11010KT P6SM VCSH SCT040 BKN050
      TEMPO 2200/2201 5SM -SHRA BR BKN040
     FM220400 12007KT P6SM FEW015 BKN050
      TEMPO 2210/2212 BKN010
     FM221600 09011KT P6SM SCT050
     FM222300 11012G18KT P6SM SCT070=



000
FTUS44 KCRP 212000 AAA
TAFLRD
TAF AMD
KLRD 212024Z 2120/2218 08010KT P6SM VCSH SCT040 BKN050
      TEMPO 2120/2124 5SM -SHRA BR BKN035
     FM220400 10007KT P6SM FEW015 BKN050
      TEMPO 2210/2212 BKN010
     FM221600 09011KT P6SM BKN050=



000
FTUS44 KCRP 211700
TAFLRD
TAF
KLRD 211725Z 2118/2218 10011KT P6SM SCT040 BKN060
     FM220400 10007KT P6SM FEW015 BKN050
      TEMPO 2210/2212 BKN010
     FM221600 09011KT P6SM BKN050=



000
FTUS44 KCRP 211700
TAFCRP
TAF
KCRP 211725Z 2118/2218 06014KT P6SM SCT030 SCT250
     FM220100 09007KT P6SM FEW018 SCT250
     FM220800 05006KT P6SM FEW018 SCT250
     FM221500 08013KT P6SM SCT250=



000
FTUS44 KCRP 211700
TAFALI
TAF
KALI 211725Z 2118/2218 08014KT P6SM SCT040 SCT100
     FM220100 07007KT P6SM SCT250
     FM220900 04005KT P6SM SCT250
      TEMPO 2212/2213 2SM BR
     FM221500 08010KT P6SM SCT040=



000
FTUS44 KCRP 211700
TAFVCT
TAF
KVCT 211725Z 2118/2218 07010KT P6SM FEW050 SCT250
     FM220800 03004KT 4SM BR SKC
     FM221400 07010KT P6SM FEW040=



000
FTUS44 KCRP 211500 AAB
TAFLRD
TAF AMD
KLRD 211503Z 2115/2212 10011KT P6SM BKN070
     FM220400 10007KT P6SM FEW015 BKN050=



000
FTUS44 KCRP 211200 AAA
TAFLRD
TAF AMD
KLRD 211257Z 2113/2212 06005KT 6SM BR BKN013
      TEMPO 2113/2115 SCT013 BKN070
     FM211500 10011KT P6SM SCT035 BKN150
     FM220400 10007KT P6SM FEW015 BKN050=



000
FTUS44 KCRP 211200 AAA
TAFALI
TAF AMD
KALI 211255Z 2113/2212 05008KT 6SM BR SCT020 BKN070
      TEMPO 2113/2114 2SM BR BKN015
     FM211400 06008KT P6SM SCT025 SCT050
     FM211900 09013KT P6SM SCT040 SCT150
     FM220100 07007KT P6SM SCT250=



000
FTUS44 KCRP 211100
TAFCRP
TAF
KCRP 211133Z 2112/2212 05010KT P6SM SCT025 SCT150
     FM211700 08014KT P6SM FEW035 SCT150
     FM220100 09007KT P6SM FEW018 SCT250=



000
FTUS44 KCRP 211100
TAFVCT
TAF
KVCT 211133Z 2112/2212 02004KT 4SM BR SKC
     FM211400 07010KT P6SM FEW040 SCT250
     FM220800 03004KT 4SM BR SKC=



000
FTUS44 KCRP 211100
TAFALI
TAF
KALI 211133Z 2112/2212 05008KT 6SM BR SCT020
      TEMPO 2112/2114 BKN015
     FM211400 06008KT P6SM SCT025 SCT050
     FM211900 09013KT P6SM SCT040 SCT150
     FM220100 07007KT P6SM SCT250=



000
FTUS44 KCRP 211100
TAFLRD
TAF
KLRD 211133Z 2112/2212 06005KT 6SM BR BKN011
      TEMPO 2113/2115 BKN009
     FM211500 10011KT P6SM SCT035 BKN150
     FM220400 10007KT P6SM FEW015 BKN050=



000
FTUS44 KCRP 211100
TAFLRD
TAF
KLRD 211133Z 2112/2212 06005KT 6SM BR BKN011
      TEMPO 2113/2115 BKN009
     FM211500 10011KT P6SM SCT035 BKN150
     FM220400 10007KT P6SM FEW015 BKN050=



000
FTUS44 KCRP 211100
TAFALI
TAF
KALI 211133Z 2112/2212 05008KT 6SM BR SCT020
      TEMPO 2112/2114 BKN015
     FM211400 06008KT P6SM SCT025 SCT050
     FM211900 09013KT P6SM SCT040 SCT150
     FM220100 07007KT P6SM SCT250=



000
FTUS44 KCRP 211100
TAFVCT
TAF
KVCT 211133Z 2112/2212 02004KT 4SM BR SKC
     FM211400 07010KT P6SM FEW040 SCT250
     FM220800 03004KT 4SM BR SKC=



000
FTUS44 KCRP 211100
TAFCRP
TAF
KCRP 211133Z 2112/2212 05010KT P6SM SCT025 SCT150
     FM211700 08014KT P6SM FEW035 SCT150
     FM220100 09007KT P6SM FEW018 SCT250=



    US Dept of Commerce
    National Oceanic and Atmospheric Administration
    National Weather Service
    1325 East West Highway
    Silver Spring, MD 20910
    Page Author: NWS Internet Services Team
Disclaimer
Information Quality
Credits
Glossary
Privacy Policy
Freedom of Information Act (FOIA)
About Us
Career Opportunities